Terminal Aerodrome Forecast
Issued by NWS

Home | Current Version | Previous Version | Text Only | Print | Product List | Glossary On
Versions: 1 2 3 4 5 6 7 8 9 10 11 12 13 14 15 16 17 18 19 20 21 22 23 24 25 26 27 28 29 30 31 32 33 34
000
FTUS45 KREV 250521
TAFRNO
TAF
KRNO 250521Z 2506/2606 VRB03KT P6SM SCT060 OVC100
     FM251400 VRB03KT P6SM VCSH SCT030 OVC060
     FM252200 34006KT P6SM BKN040 BKN080
     FM260500 VRB03KT P6SM SCT050=

USA.gov is the U.S. government's official web portal to all federal, state and local government web resources and services.